sensor_id;sensor_type;location;lat;lon;timestamp;P1;durP1;ratioP1;P2;durP2;ratioP2
68690;SDS011;55675;49.588;8.640;2022-10-13T00:00:26;13.53;;;9.17;;
68690;SDS011;55675;49.588;8.640;2022-10-13T00:02:52;21.03;;;10.97;;
68690;SDS011;55675;49.588;8.640;2022-10-13T00:05:18;13.80;;;9.67;;
68690;SDS011;55675;49.588;8.640;2022-10-13T00:07:43;13.37;;;9.83;;
68690;SDS011;55675;49.588;8.640;2022-10-13T00:10:09;12.20;;;8.77;;
68690;SDS011;55675;49.588;8.640;2022-10-13T00:12:35;10.50;;;8.90;;
68690;SDS011;55675;49.588;8.640;2022-10-13T00:15:02;16.57;;;8.83;;
68690;SDS011;55675;49.588;8.640;2022-10-13T00:17:30;10.37;;;8.93;;
68690;SDS011;55675;49.588;8.640;2022-10-13T00:19:56;11.50;;;8.87;;
68690;SDS011;55675;49.588;8.640;2022-10-13T00:22:21;9.60;;;8.00;;
68690;SDS011;55675;49.588;8.640;2022-10-13T00:24:50;10.90;;;8.10;;
68690;SDS011;55675;49.588;8.640;2022-10-13T00:27:16;10.90;;;8.20;;
68690;SDS011;55675;49.588;8.640;2022-10-13T00:29:42;10.67;;;8.47;;
68690;SDS011;55675;49.588;8.640;2022-10-13T00:32:07;10.90;;;8.10;;
68690;SDS011;55675;49.588;8.640;2022-10-13T00:34:33;8.77;;;7.87;;
68690;SDS011;55675;49.588;8.640;2022-10-13T00:37:00;9.50;;;8.30;;
68690;SDS011;55675;49.588;8.640;2022-10-13T00:39:26;9.90;;;8.03;;
68690;SDS011;55675;49.588;8.640;2022-10-13T00:41:52;9.90;;;8.20;;
68690;SDS011;55675;49.588;8.640;2022-10-13T00:47:20;11.80;;;8.63;;
68690;SDS011;55675;49.588;8.640;2022-10-13T00:49:47;11.37;;;8.27;;
68690;SDS011;55675;49.588;8.640;2022-10-13T00:52:13;12.53;;;9.50;;
68690;SDS011;55675;49.588;8.640;2022-10-13T00:54:41;17.93;;;10.37;;
68690;SDS011;55675;49.588;8.640;2022-10-13T00:57:07;15.40;;;10.47;;
68690;SDS011;55675;49.588;8.640;2022-10-13T00:59:33;13.50;;;9.80;;
68690;SDS011;55675;49.588;8.640;2022-10-13T01:02:01;10.67;;;9.40;;
68690;SDS011;55675;49.588;8.640;2022-10-13T01:04:31;14.27;;;9.53;;
68690;SDS011;55675;49.588;8.640;2022-10-13T01:07:01;16.87;;;10.63;;
68690;SDS011;55675;49.588;8.640;2022-10-13T01:09:27;16.27;;;10.80;;
68690;SDS011;55675;49.588;8.640;2022-10-13T01:14:50;21.37;;;10.57;;
68690;SDS011;55675;49.588;8.640;2022-10-13T01:17:21;16.37;;;10.10;;
68690;SDS011;55675;49.588;8.640;2022-10-13T01:25:32;10.00;;;8.87;;
68690;SDS011;55675;49.588;8.640;2022-10-13T01:31:13;14.00;;;9.53;;
68690;SDS011;55675;49.588;8.640;2022-10-13T01:34:09;14.43;;;9.90;;
68690;SDS011;55675;49.588;8.640;2022-10-13T01:36:47;14.43;;;9.70;;
68690;SDS011;55675;49.588;8.640;2022-10-13T01:39:22;13.87;;;9.60;;
68690;SDS011;55675;49.588;8.640;2022-10-13T01:41:55;13.90;;;9.63;;
68690;SDS011;55675;49.588;8.640;2022-10-13T01:44:35;13.27;;;10.33;;
68690;SDS011;55675;49.588;8.640;2022-10-13T01:47:05;17.43;;;9.30;;
68690;SDS011;55675;49.588;8.640;2022-10-13T01:49:33;14.73;;;9.83;;
68690;SDS011;55675;49.588;8.640;2022-10-13T01:52:00;16.17;;;10.40;;
68690;SDS011;55675;49.588;8.640;2022-10-13T01:54:30;14.10;;;9.43;;
68690;SDS011;55675;49.588;8.640;2022-10-13T01:56:57;17.03;;;9.80;;
68690;SDS011;55675;49.588;8.640;2022-10-13T01:59:23;17.37;;;10.37;;
68690;SDS011;55675;49.588;8.640;2022-10-13T02:01:53;11.93;;;9.23;;
68690;SDS011;55675;49.588;8.640;2022-10-13T02:04:53;15.67;;;10.63;;
68690;SDS011;55675;49.588;8.640;2022-10-13T02:07:27;17.40;;;10.83;;
68690;SDS011;55675;49.588;8.640;2022-10-13T02:10:10;17.20;;;10.53;;
68690;SDS011;55675;49.588;8.640;2022-10-13T02:12:45;16.17;;;10.30;;
68690;SDS011;55675;49.588;8.640;2022-10-13T02:15:20;18.17;;;9.93;;
68690;SDS011;55675;49.588;8.640;2022-10-13T02:17:49;13.03;;;9.63;;
68690;SDS011;55675;49.588;8.640;2022-10-13T02:20:15;12.53;;;10.07;;
68690;SDS011;55675;49.588;8.640;2022-10-13T02:22:44;15.77;;;9.53;;
68690;SDS011;55675;49.588;8.640;2022-10-13T02:25:11;13.63;;;9.37;;
68690;SDS011;55675;49.588;8.640;2022-10-13T02:30:59;13.27;;;9.47;;
68690;SDS011;55675;49.588;8.640;2022-10-13T02:33:24;15.37;;;9.60;;
68690;SDS011;55675;49.588;8.640;2022-10-13T02:35:50;14.13;;;9.33;;
68690;SDS011;55675;49.588;8.640;2022-10-13T02:38:15;12.77;;;9.17;;
68690;SDS011;55675;49.588;8.640;2022-10-13T02:40:40;15.23;;;9.70;;
68690;SDS011;55675;49.588;8.640;2022-10-13T02:43:06;13.83;;;9.43;;
68690;SDS011;55675;49.588;8.640;2022-10-13T02:45:32;15.33;;;9.73;;
68690;SDS011;55675;49.588;8.640;2022-10-13T02:47:57;13.33;;;9.47;;
68690;SDS011;55675;49.588;8.640;2022-10-13T02:50:23;16.87;;;10.03;;
68690;SDS011;55675;49.588;8.640;2022-10-13T02:52:48;18.73;;;10.73;;
68690;SDS011;55675;49.588;8.640;2022-10-13T02:55:14;17.20;;;10.57;;
68690;SDS011;55675;49.588;8.640;2022-10-13T02:57:40;18.17;;;11.30;;
68690;SDS011;55675;49.588;8.640;2022-10-13T03:00:05;17.93;;;10.90;;
68690;SDS011;55675;49.588;8.640;2022-10-13T03:02:32;16.70;;;10.80;;
68690;SDS011;55675;49.588;8.640;2022-10-13T03:04:57;14.50;;;9.93;;
68690;SDS011;55675;49.588;8.640;2022-10-13T03:07:23;16.50;;;10.63;;
68690;SDS011;55675;49.588;8.640;2022-10-13T03:09:48;15.60;;;10.47;;
68690;SDS011;55675;49.588;8.640;2022-10-13T03:12:14;16.23;;;11.37;;
68690;SDS011;55675;49.588;8.640;2022-10-13T03:14:39;21.77;;;10.87;;
68690;SDS011;55675;49.588;8.640;2022-10-13T03:17:05;20.33;;;11.17;;
68690;SDS011;55675;49.588;8.640;2022-10-13T03:19:30;20.33;;;10.97;;
68690;SDS011;55675;49.588;8.640;2022-10-13T03:21:56;15.20;;;10.70;;
68690;SDS011;55675;49.588;8.640;2022-10-13T03:24:21;13.37;;;10.50;;
68690;SDS011;55675;49.588;8.640;2022-10-13T03:26:47;13.27;;;9.37;;
68690;SDS011;55675;49.588;8.640;2022-10-13T03:29:13;14.47;;;9.20;;
68690;SDS011;55675;49.588;8.640;2022-10-13T03:31:40;14.87;;;10.20;;
68690;SDS011;55675;49.588;8.640;2022-10-13T03:34:07;13.90;;;9.23;;
68690;SDS011;55675;49.588;8.640;2022-10-13T03:36:34;14.67;;;9.27;;
68690;SDS011;55675;49.588;8.640;2022-10-13T03:39:00;12.87;;;9.23;;
68690;SDS011;55675;49.588;8.640;2022-10-13T03:41:25;13.20;;;9.20;;
68690;SDS011;55675;49.588;8.640;2022-10-13T03:43:51;14.40;;;9.70;;
68690;SDS011;55675;49.588;8.640;2022-10-13T03:46:16;13.80;;;10.20;;
68690;SDS011;55675;49.588;8.640;2022-10-13T03:48:43;17.03;;;11.27;;
68690;SDS011;55675;49.588;8.640;2022-10-13T03:51:10;16.83;;;10.20;;
68690;SDS011;55675;49.588;8.640;2022-10-13T03:53:37;18.37;;;10.83;;
68690;SDS011;55675;49.588;8.640;2022-10-13T03:56:03;23.77;;;11.63;;
68690;SDS011;55675;49.588;8.640;2022-10-13T03:58:30;20.77;;;12.07;;
68690;SDS011;55675;49.588;8.640;2022-10-13T04:00:56;26.53;;;12.67;;
68690;SDS011;55675;49.588;8.640;2022-10-13T04:03:26;27.00;;;12.47;;
68690;SDS011;55675;49.588;8.640;2022-10-13T04:05:51;32.63;;;12.90;;
68690;SDS011;55675;49.588;8.640;2022-10-13T04:08:17;24.07;;;12.13;;
68690;SDS011;55675;49.588;8.640;2022-10-13T04:10:42;31.53;;;13.23;;
68690;SDS011;55675;49.588;8.640;2022-10-13T04:13:08;24.53;;;13.07;;
68690;SDS011;55675;49.588;8.640;2022-10-13T04:15:40;27.43;;;12.93;;
68690;SDS011;55675;49.588;8.640;2022-10-13T04:18:06;27.43;;;13.20;;
68690;SDS011;55675;49.588;8.640;2022-10-13T04:20:38;26.10;;;12.77;;
68690;SDS011;55675;49.588;8.640;2022-10-13T04:23:04;33.67;;;13.07;;
68690;SDS011;55675;49.588;8.640;2022-10-13T04:25:33;88.67;;;13.20;;
68690;SDS011;55675;49.588;8.640;2022-10-13T04:28:00;31.20;;;12.23;;
68690;SDS011;55675;49.588;8.640;2022-10-13T04:30:26;49.83;;;13.00;;
68690;SDS011;55675;49.588;8.640;2022-10-13T04:32:51;79.07;;;13.23;;
68690;SDS011;55675;49.588;8.640;2022-10-13T04:35:16;53.47;;;13.17;;
68690;SDS011;55675;49.588;8.640;2022-10-13T04:37:42;54.47;;;13.07;;
68690;SDS011;55675;49.588;8.640;2022-10-13T04:40:08;36.67;;;12.30;;
68690;SDS011;55675;49.588;8.640;2022-10-13T04:42:33;63.27;;;13.83;;
68690;SDS011;55675;49.588;8.640;2022-10-13T04:44:59;66.27;;;13.50;;
68690;SDS011;55675;49.588;8.640;2022-10-13T04:47:24;46.43;;;13.17;;
68690;SDS011;55675;49.588;8.640;2022-10-13T04:49:50;49.10;;;12.97;;
68690;SDS011;55675;49.588;8.640;2022-10-13T04:52:16;37.13;;;11.93;;
68690;SDS011;55675;49.588;8.640;2022-10-13T04:54:41;40.03;;;12.50;;
68690;SDS011;55675;49.588;8.640;2022-10-13T04:57:07;57.13;;;13.53;;
68690;SDS011;55675;49.588;8.640;2022-10-13T04:59:33;38.67;;;12.80;;
68690;SDS011;55675;49.588;8.640;2022-10-13T05:01:58;24.47;;;11.80;;
68690;SDS011;55675;49.588;8.640;2022-10-13T05:04:24;22.43;;;11.97;;
68690;SDS011;55675;49.588;8.640;2022-10-13T05:06:49;19.87;;;12.10;;
68690;SDS011;55675;49.588;8.640;2022-10-13T05:09:15;17.87;;;12.10;;
68690;SDS011;55675;49.588;8.640;2022-10-13T05:11:40;23.63;;;12.47;;
68690;SDS011;55675;49.588;8.640;2022-10-13T05:14:06;22.03;;;12.40;;
68690;SDS011;55675;49.588;8.640;2022-10-13T05:16:32;17.37;;;12.17;;
68690;SDS011;55675;49.588;8.640;2022-10-13T05:18:57;17.73;;;12.57;;
68690;SDS011;55675;49.588;8.640;2022-10-13T05:21:24;17.87;;;12.50;;
68690;SDS011;55675;49.588;8.640;2022-10-13T05:23:52;19.20;;;11.97;;
68690;SDS011;55675;49.588;8.640;2022-10-13T05:26:20;15.43;;;11.17;;
68690;SDS011;55675;49.588;8.640;2022-10-13T05:28:53;16.30;;;12.07;;
68690;SDS011;55675;49.588;8.640;2022-10-13T05:31:20;16.13;;;11.90;;
68690;SDS011;55675;49.588;8.640;2022-10-13T05:33:47;17.77;;;11.50;;
68690;SDS011;55675;49.588;8.640;2022-10-13T05:36:15;16.77;;;11.77;;
68690;SDS011;55675;49.588;8.640;2022-10-13T05:38:49;17.33;;;12.00;;
68690;SDS011;55675;49.588;8.640;2022-10-13T05:41:16;17.47;;;12.50;;
68690;SDS011;55675;49.588;8.640;2022-10-13T05:43:42;21.17;;;13.13;;
68690;SDS011;55675;49.588;8.640;2022-10-13T05:46:08;17.47;;;13.17;;
68690;SDS011;55675;49.588;8.640;2022-10-13T05:48:33;18.23;;;12.43;;
68690;SDS011;55675;49.588;8.640;2022-10-13T05:51:00;20.80;;;13.03;;
68690;SDS011;55675;49.588;8.640;2022-10-13T05:53:31;19.13;;;13.33;;
68690;SDS011;55675;49.588;8.640;2022-10-13T05:56:02;21.63;;;14.27;;
68690;SDS011;55675;49.588;8.640;2022-10-13T05:58:34;20.33;;;12.40;;
68690;SDS011;55675;49.588;8.640;2022-10-13T06:01:05;17.07;;;11.37;;
68690;SDS011;55675;49.588;8.640;2022-10-13T06:03:32;17.73;;;12.83;;
68690;SDS011;55675;49.588;8.640;2022-10-13T06:05:59;23.23;;;13.97;;
68690;SDS011;55675;49.588;8.640;2022-10-13T06:08:24;22.30;;;14.17;;
68690;SDS011;55675;49.588;8.640;2022-10-13T06:10:50;23.20;;;13.97;;
68690;SDS011;55675;49.588;8.640;2022-10-13T06:13:16;21.03;;;13.23;;
68690;SDS011;55675;49.588;8.640;2022-10-13T06:15:41;20.87;;;12.83;;
68690;SDS011;55675;49.588;8.640;2022-10-13T06:18:07;19.83;;;12.23;;
68690;SDS011;55675;49.588;8.640;2022-10-13T06:20:33;21.77;;;13.07;;
68690;SDS011;55675;49.588;8.640;2022-10-13T06:22:59;19.43;;;12.63;;
68690;SDS011;55675;49.588;8.640;2022-10-13T06:25:25;21.93;;;12.60;;
68690;SDS011;55675;49.588;8.640;2022-10-13T06:27:51;20.67;;;12.70;;
68690;SDS011;55675;49.588;8.640;2022-10-13T06:30:16;20.50;;;11.73;;
68690;SDS011;55675;49.588;8.640;2022-10-13T06:32:42;19.30;;;12.13;;
68690;SDS011;55675;49.588;8.640;2022-10-13T06:35:08;17.60;;;11.77;;
68690;SDS011;55675;49.588;8.640;2022-10-13T06:37:33;20.00;;;11.87;;
68690;SDS011;55675;49.588;8.640;2022-10-13T06:39:59;18.70;;;12.57;;
68690;SDS011;55675;49.588;8.640;2022-10-13T06:42:24;17.63;;;11.90;;
68690;SDS011;55675;49.588;8.640;2022-10-13T06:44:50;19.90;;;12.27;;
68690;SDS011;55675;49.588;8.640;2022-10-13T06:47:15;19.90;;;12.37;;
68690;SDS011;55675;49.588;8.640;2022-10-13T06:49:41;20.40;;;13.50;;
68690;SDS011;55675;49.588;8.640;2022-10-13T06:52:07;19.10;;;12.53;;
68690;SDS011;55675;49.588;8.640;2022-10-13T06:54:33;19.20;;;12.53;;
68690;SDS011;55675;49.588;8.640;2022-10-13T06:56:58;18.93;;;12.57;;
68690;SDS011;55675;49.588;8.640;2022-10-13T06:59:24;17.70;;;11.70;;
68690;SDS011;55675;49.588;8.640;2022-10-13T07:01:51;18.40;;;12.80;;
68690;SDS011;55675;49.588;8.640;2022-10-13T07:04:17;22.80;;;12.87;;
68690;SDS011;55675;49.588;8.640;2022-10-13T07:06:43;22.23;;;13.20;;
68690;SDS011;55675;49.588;8.640;2022-10-13T07:09:08;19.37;;;13.40;;
68690;SDS011;55675;49.588;8.640;2022-10-13T07:11:34;20.60;;;14.10;;
68690;SDS011;55675;49.588;8.640;2022-10-13T07:14:00;24.77;;;13.77;;
68690;SDS011;55675;49.588;8.640;2022-10-13T07:16:25;21.93;;;12.90;;
68690;SDS011;55675;49.588;8.640;2022-10-13T07:18:51;23.60;;;14.30;;
68690;SDS011;55675;49.588;8.640;2022-10-13T07:21:16;18.10;;;12.83;;
68690;SDS011;55675;49.588;8.640;2022-10-13T07:23:42;22.97;;;13.83;;
68690;SDS011;55675;49.588;8.640;2022-10-13T07:26:09;24.53;;;13.97;;
68690;SDS011;55675;49.588;8.640;2022-10-13T07:28:36;22.17;;;14.10;;
68690;SDS011;55675;49.588;8.640;2022-10-13T07:31:09;22.27;;;14.67;;
68690;SDS011;55675;49.588;8.640;2022-10-13T07:33:38;21.63;;;14.30;;
68690;SDS011;55675;49.588;8.640;2022-10-13T07:36:04;18.80;;;13.17;;
68690;SDS011;55675;49.588;8.640;2022-10-13T07:38:30;19.80;;;13.87;;
68690;SDS011;55675;49.588;8.640;2022-10-13T07:40:58;21.40;;;13.40;;
68690;SDS011;55675;49.588;8.640;2022-10-13T07:43:26;17.83;;;13.30;;
68690;SDS011;55675;49.588;8.640;2022-10-13T07:45:51;19.40;;;13.53;;
68690;SDS011;55675;49.588;8.640;2022-10-13T07:48:17;18.77;;;12.77;;
68690;SDS011;55675;49.588;8.640;2022-10-13T07:50:42;18.43;;;12.47;;
68690;SDS011;55675;49.588;8.640;2022-10-13T07:53:08;19.73;;;13.50;;
68690;SDS011;55675;49.588;8.640;2022-10-13T07:55:33;19.20;;;13.53;;
68690;SDS011;55675;49.588;8.640;2022-10-13T07:58:00;22.17;;;14.73;;
68690;SDS011;55675;49.588;8.640;2022-10-13T08:00:26;20.83;;;13.30;;
68690;SDS011;55675;49.588;8.640;2022-10-13T08:02:52;20.40;;;13.67;;
68690;SDS011;55675;49.588;8.640;2022-10-13T08:05:17;21.60;;;14.00;;
68690;SDS011;55675;49.588;8.640;2022-10-13T08:07:43;18.70;;;13.70;;
68690;SDS011;55675;49.588;8.640;2022-10-13T08:10:09;19.77;;;12.80;;
68690;SDS011;55675;49.588;8.640;2022-10-13T08:12:35;18.87;;;13.17;;
68690;SDS011;55675;49.588;8.640;2022-10-13T08:15:01;18.13;;;13.03;;
68690;SDS011;55675;49.588;8.640;2022-10-13T08:17:27;21.63;;;13.90;;
68690;SDS011;55675;49.588;8.640;2022-10-13T08:19:53;18.60;;;13.53;;
68690;SDS011;55675;49.588;8.640;2022-10-13T08:22:18;18.90;;;13.30;;
68690;SDS011;55675;49.588;8.640;2022-10-13T08:24:44;21.17;;;13.67;;
68690;SDS011;55675;49.588;8.640;2022-10-13T08:27:10;19.20;;;13.00;;
68690;SDS011;55675;49.588;8.640;2022-10-13T08:29:42;18.87;;;13.07;;
68690;SDS011;55675;49.588;8.640;2022-10-13T08:32:08;19.40;;;14.27;;
68690;SDS011;55675;49.588;8.640;2022-10-13T08:34:33;18.43;;;13.73;;
68690;SDS011;55675;49.588;8.640;2022-10-13T08:37:00;21.70;;;14.47;;
68690;SDS011;55675;49.588;8.640;2022-10-13T08:39:26;20.03;;;14.37;;
68690;SDS011;55675;49.588;8.640;2022-10-13T08:41:52;22.77;;;13.57;;
68690;SDS011;55675;49.588;8.640;2022-10-13T08:46:53;18.03;;;13.33;;
68690;SDS011;55675;49.588;8.640;2022-10-13T08:49:25;23.37;;;14.47;;
68690;SDS011;55675;49.588;8.640;2022-10-13T08:51:51;17.43;;;13.37;;
68690;SDS011;55675;49.588;8.640;2022-10-13T08:54:18;24.57;;;15.87;;
68690;SDS011;55675;49.588;8.640;2022-10-13T08:56:46;21.87;;;14.53;;
68690;SDS011;55675;49.588;8.640;2022-10-13T08:59:14;22.03;;;15.27;;
68690;SDS011;55675;49.588;8.640;2022-10-13T09:01:41;21.80;;;14.33;;
68690;SDS011;55675;49.588;8.640;2022-10-13T09:07:09;20.97;;;14.23;;
68690;SDS011;55675;49.588;8.640;2022-10-13T09:09:39;25.20;;;15.07;;
68690;SDS011;55675;49.588;8.640;2022-10-13T09:12:05;22.73;;;15.33;;
68690;SDS011;55675;49.588;8.640;2022-10-13T09:14:32;23.10;;;15.07;;
68690;SDS011;55675;49.588;8.640;2022-10-13T09:17:22;22.00;;;15.93;;
68690;SDS011;55675;49.588;8.640;2022-10-13T09:20:14;20.60;;;14.40;;
68690;SDS011;55675;49.588;8.640;2022-10-13T09:22:43;23.23;;;13.97;;
68690;SDS011;55675;49.588;8.640;2022-10-13T09:25:23;20.97;;;13.83;;
68690;SDS011;55675;49.588;8.640;2022-10-13T09:27:50;22.33;;;13.97;;
68690;SDS011;55675;49.588;8.640;2022-10-13T09:36:12;18.30;;;13.30;;
68690;SDS011;55675;49.588;8.640;2022-10-13T09:38:35;19.17;;;13.30;;
68690;SDS011;55675;49.588;8.640;2022-10-13T09:43:34;16.23;;;12.73;;
68690;SDS011;55675;49.588;8.640;2022-10-13T09:46:12;17.97;;;13.50;;
68690;SDS011;55675;49.588;8.640;2022-10-13T09:48:46;20.17;;;13.57;;
68690;SDS011;55675;49.588;8.640;2022-10-13T09:54:01;17.77;;;12.87;;
68690;SDS011;55675;49.588;8.640;2022-10-13T09:56:36;19.87;;;14.33;;
68690;SDS011;55675;49.588;8.640;2022-10-13T09:59:08;18.90;;;13.37;;
68690;SDS011;55675;49.588;8.640;2022-10-13T10:01:46;19.20;;;13.10;;
68690;SDS011;55675;49.588;8.640;2022-10-13T10:04:19;20.20;;;12.00;;
68690;SDS011;55675;49.588;8.640;2022-10-13T10:06:49;15.87;;;11.40;;
68690;SDS011;55675;49.588;8.640;2022-10-13T10:11:47;15.73;;;11.63;;
68690;SDS011;55675;49.588;8.640;2022-10-13T10:19:42;17.17;;;12.17;;
68690;SDS011;55675;49.588;8.640;2022-10-13T10:27:46;16.60;;;12.00;;
68690;SDS011;55675;49.588;8.640;2022-10-13T10:30:24;17.83;;;12.27;;
68690;SDS011;55675;49.588;8.640;2022-10-13T10:32:52;17.30;;;11.93;;
68690;SDS011;55675;49.588;8.640;2022-10-13T10:35:40;14.97;;;11.87;;
68690;SDS011;55675;49.588;8.640;2022-10-13T10:38:31;15.87;;;12.23;;
68690;SDS011;55675;49.588;8.640;2022-10-13T10:41:12;16.73;;;11.60;;
68690;SDS011;55675;49.588;8.640;2022-10-13T10:43:49;17.23;;;11.43;;
68690;SDS011;55675;49.588;8.640;2022-10-13T10:46:38;19.30;;;11.77;;
68690;SDS011;55675;49.588;8.640;2022-10-13T10:49:28;15.10;;;11.50;;
68690;SDS011;55675;49.588;8.640;2022-10-13T10:52:00;16.00;;;10.90;;
68690;SDS011;55675;49.588;8.640;2022-10-13T10:56:59;17.23;;;11.03;;
68690;SDS011;55675;49.588;8.640;2022-10-13T11:04:43;16.70;;;11.07;;
68690;SDS011;55675;49.588;8.640;2022-10-13T11:15:01;20.83;;;11.83;;
68690;SDS011;55675;49.588;8.640;2022-10-13T11:17:35;15.37;;;10.80;;
68690;SDS011;55675;49.588;8.640;2022-10-13T11:25:42;16.33;;;10.60;;
68690;SDS011;55675;49.588;8.640;2022-10-13T11:30:47;16.17;;;10.23;;
68690;SDS011;55675;49.588;8.640;2022-10-13T11:39:21;14.87;;;11.23;;
68690;SDS011;55675;49.588;8.640;2022-10-13T11:42:04;13.53;;;11.07;;
68690;SDS011;55675;49.588;8.640;2022-10-13T11:47:42;12.50;;;10.47;;
68690;SDS011;55675;49.588;8.640;2022-10-13T11:53:14;12.23;;;10.60;;
68690;SDS011;55675;49.588;8.640;2022-10-13T11:55:50;14.50;;;10.87;;
68690;SDS011;55675;49.588;8.640;2022-10-13T11:58:27;15.13;;;10.63;;
68690;SDS011;55675;49.588;8.640;2022-10-13T12:01:01;12.53;;;10.27;;
68690;SDS011;55675;49.588;8.640;2022-10-13T12:03:31;11.30;;;10.00;;
68690;SDS011;55675;49.588;8.640;2022-10-13T12:08:56;16.63;;;9.57;;
68690;SDS011;55675;49.588;8.640;2022-10-13T12:11:23;15.97;;;9.83;;
68690;SDS011;55675;49.588;8.640;2022-10-13T12:13:54;14.30;;;9.53;;
68690;SDS011;55675;49.588;8.640;2022-10-13T12:16:20;12.43;;;10.03;;
68690;SDS011;55675;49.588;8.640;2022-10-13T12:18:46;13.83;;;9.73;;
68690;SDS011;55675;49.588;8.640;2022-10-13T12:21:13;14.73;;;10.07;;
68690;SDS011;55675;49.588;8.640;2022-10-13T12:23:45;13.57;;;10.90;;
68690;SDS011;55675;49.588;8.640;2022-10-13T12:26:15;13.77;;;10.50;;
68690;SDS011;55675;49.588;8.640;2022-10-13T12:28:49;19.83;;;11.93;;
68690;SDS011;55675;49.588;8.640;2022-10-13T12:33:54;18.07;;;10.47;;
68690;SDS011;55675;49.588;8.640;2022-10-13T12:36:28;13.67;;;11.30;;
68690;SDS011;55675;49.588;8.640;2022-10-13T12:39:06;13.87;;;11.27;;
68690;SDS011;55675;49.588;8.640;2022-10-13T12:41:37;17.20;;;12.37;;
68690;SDS011;55675;49.588;8.640;2022-10-13T12:44:30;18.17;;;12.37;;
68690;SDS011;55675;49.588;8.640;2022-10-13T12:46:56;17.03;;;12.10;;
68690;SDS011;55675;49.588;8.640;2022-10-13T12:51:53;19.17;;;12.63;;
68690;SDS011;55675;49.588;8.640;2022-10-13T12:54:21;18.23;;;12.33;;
68690;SDS011;55675;49.588;8.640;2022-10-13T12:56:52;15.87;;;12.20;;
68690;SDS011;55675;49.588;8.640;2022-10-13T12:59:20;18.43;;;12.63;;
68690;SDS011;55675;49.588;8.640;2022-10-13T13:01:54;16.17;;;11.60;;
68690;SDS011;55675;49.588;8.640;2022-10-13T13:09:24;17.87;;;12.40;;
68690;SDS011;55675;49.588;8.640;2022-10-13T13:14:54;18.40;;;12.13;;
68690;SDS011;55675;49.588;8.640;2022-10-13T13:19:48;18.43;;;12.13;;
68690;SDS011;55675;49.588;8.640;2022-10-13T13:22:15;17.57;;;11.87;;
68690;SDS011;55675;49.588;8.640;2022-10-13T13:24:41;17.30;;;13.60;;
68690;SDS011;55675;49.588;8.640;2022-10-13T13:29:44;19.40;;;13.23;;
68690;SDS011;55675;49.588;8.640;2022-10-13T13:32:11;16.23;;;13.07;;
68690;SDS011;55675;49.588;8.640;2022-10-13T13:34:37;17.80;;;13.93;;
68690;SDS011;55675;49.588;8.640;2022-10-13T13:37:03;15.87;;;13.17;;
68690;SDS011;55675;49.588;8.640;2022-10-13T13:39:28;17.80;;;13.37;;
68690;SDS011;55675;49.588;8.640;2022-10-13T13:41:54;16.70;;;13.33;;
68690;SDS011;55675;49.588;8.640;2022-10-13T13:44:19;18.87;;;13.70;;
68690;SDS011;55675;49.588;8.640;2022-10-13T13:46:45;19.00;;;13.10;;
68690;SDS011;55675;49.588;8.640;2022-10-13T13:49:10;15.23;;;12.23;;
68690;SDS011;55675;49.588;8.640;2022-10-13T13:51:36;18.43;;;13.23;;
68690;SDS011;55675;49.588;8.640;2022-10-13T13:54:02;17.43;;;11.77;;
68690;SDS011;55675;49.588;8.640;2022-10-13T13:56:28;15.33;;;12.53;;
68690;SDS011;55675;49.588;8.640;2022-10-13T13:58:53;14.77;;;11.57;;
68690;SDS011;55675;49.588;8.640;2022-10-13T14:01:19;19.00;;;14.00;;
68690;SDS011;55675;49.588;8.640;2022-10-13T14:03:44;15.60;;;13.17;;
68690;SDS011;55675;49.588;8.640;2022-10-13T14:06:17;15.13;;;12.37;;
68690;SDS011;55675;49.588;8.640;2022-10-13T14:08:44;17.90;;;13.27;;
68690;SDS011;55675;49.588;8.640;2022-10-13T14:11:09;14.00;;;10.93;;
68690;SDS011;55675;49.588;8.640;2022-10-13T14:13:35;14.40;;;11.13;;
68690;SDS011;55675;49.588;8.640;2022-10-13T14:16:01;14.23;;;11.27;;
68690;SDS011;55675;49.588;8.640;2022-10-13T14:18:27;13.03;;;10.97;;
68690;SDS011;55675;49.588;8.640;2022-10-13T14:20:53;16.17;;;11.07;;
68690;SDS011;55675;49.588;8.640;2022-10-13T14:23:19;15.00;;;10.93;;
68690;SDS011;55675;49.588;8.640;2022-10-13T14:25:44;19.37;;;10.93;;
68690;SDS011;55675;49.588;8.640;2022-10-13T14:28:10;14.97;;;10.70;;
68690;SDS011;55675;49.588;8.640;2022-10-13T14:30:38;14.17;;;11.07;;
68690;SDS011;55675;49.588;8.640;2022-10-13T14:33:04;16.10;;;10.80;;
68690;SDS011;55675;49.588;8.640;2022-10-13T14:35:30;15.17;;;10.87;;
68690;SDS011;55675;49.588;8.640;2022-10-13T14:37:56;20.57;;;11.33;;
68690;SDS011;55675;49.588;8.640;2022-10-13T14:40:21;15.53;;;11.87;;
68690;SDS011;55675;49.588;8.640;2022-10-13T14:42:47;16.33;;;11.13;;
68690;SDS011;55675;49.588;8.640;2022-10-13T14:45:12;17.73;;;11.27;;
68690;SDS011;55675;49.588;8.640;2022-10-13T14:47:39;14.77;;;11.53;;
68690;SDS011;55675;49.588;8.640;2022-10-13T14:50:05;17.27;;;11.67;;
68690;SDS011;55675;49.588;8.640;2022-10-13T14:52:32;17.43;;;11.50;;
68690;SDS011;55675;49.588;8.640;2022-10-13T14:54:57;14.50;;;11.30;;
68690;SDS011;55675;49.588;8.640;2022-10-13T14:57:23;14.30;;;11.90;;
68690;SDS011;55675;49.588;8.640;2022-10-13T14:59:48;20.10;;;11.53;;
68690;SDS011;55675;49.588;8.640;2022-10-13T15:02:14;17.93;;;11.97;;
68690;SDS011;55675;49.588;8.640;2022-10-13T15:04:40;16.47;;;11.63;;
68690;SDS011;55675;49.588;8.640;2022-10-13T15:07:06;15.80;;;11.90;;
68690;SDS011;55675;49.588;8.640;2022-10-13T15:09:31;18.27;;;11.60;;
68690;SDS011;55675;49.588;8.640;2022-10-13T15:11:57;16.57;;;12.50;;
68690;SDS011;55675;49.588;8.640;2022-10-13T15:14:22;17.00;;;12.13;;
68690;SDS011;55675;49.588;8.640;2022-10-13T15:16:48;15.77;;;12.47;;
68690;SDS011;55675;49.588;8.640;2022-10-13T15:19:13;17.13;;;12.77;;
68690;SDS011;55675;49.588;8.640;2022-10-13T15:21:39;16.57;;;11.93;;
68690;SDS011;55675;49.588;8.640;2022-10-13T15:24:05;18.83;;;12.70;;
68690;SDS011;55675;49.588;8.640;2022-10-13T15:26:30;15.57;;;11.97;;
68690;SDS011;55675;49.588;8.640;2022-10-13T15:28:56;15.60;;;11.53;;
68690;SDS011;55675;49.588;8.640;2022-10-13T15:31:22;15.33;;;10.93;;
68690;SDS011;55675;49.588;8.640;2022-10-13T15:33:49;17.20;;;11.53;;
68690;SDS011;55675;49.588;8.640;2022-10-13T15:36:16;16.07;;;11.63;;
68690;SDS011;55675;49.588;8.640;2022-10-13T15:38:43;16.40;;;11.43;;
68690;SDS011;55675;49.588;8.640;2022-10-13T15:41:09;16.60;;;11.50;;
68690;SDS011;55675;49.588;8.640;2022-10-13T15:43:36;15.03;;;10.93;;
68690;SDS011;55675;49.588;8.640;2022-10-13T15:46:03;20.63;;;11.70;;
68690;SDS011;55675;49.588;8.640;2022-10-13T15:48:31;22.73;;;11.73;;
68690;SDS011;55675;49.588;8.640;2022-10-13T15:50:57;17.03;;;11.33;;
68690;SDS011;55675;49.588;8.640;2022-10-13T15:53:23;14.80;;;11.60;;
68690;SDS011;55675;49.588;8.640;2022-10-13T15:55:49;15.57;;;11.40;;
68690;SDS011;55675;49.588;8.640;2022-10-13T15:58:15;15.63;;;11.23;;
68690;SDS011;55675;49.588;8.640;2022-10-13T16:00:41;16.93;;;11.57;;
68690;SDS011;55675;49.588;8.640;2022-10-13T16:03:11;15.83;;;11.10;;
68690;SDS011;55675;49.588;8.640;2022-10-13T16:05:39;17.63;;;11.57;;
68690;SDS011;55675;49.588;8.640;2022-10-13T16:08:06;16.53;;;11.83;;
68690;SDS011;55675;49.588;8.640;2022-10-13T16:10:32;18.17;;;12.67;;
68690;SDS011;55675;49.588;8.640;2022-10-13T16:12:57;14.10;;;12.13;;